Time;durP1;ratioP1;P1;durP2;ratioP2;P2;SDS_P1;SDS_P2;PMS_P1;PMS_P2;Temp;Humidity;BMP_temperature;BMP_pressure;BME280_temperature;BME280_humidity;BME280_pressure;Samples;Min_cycle;Max_cycle;Signal;HPM_P1;HPM_P2
2023/12/08 00:00:46;;;;;;;255.50;179.60;;;;;;;1.98;100.00;100859.59;110604;1251;548197;-79
2023/12/08 00:04:55;;;;;;;292.70;173.50;;;;;;;1.97;100.00;100859.01;106733;1259;5417355;-79
2023/12/08 00:08:47;;;;;;;;;;;;;;;;;;;;;
2023/12/08 00:15:58;;;;;;;228.40;143.20;;;;;;;0.76;100.00;100872.46;109223;1274;21995;-78
2023/12/08 00:18:58;;;;;;;;;;;;;;;;;;;;;
2023/12/08 00:22:02;;;;;;;234.40;150.90;;;;;;;0.53;100.00;100878.56;109249;1270;22141;-81
2023/12/08 00:30:13;;;;;;;;;;;;;;;;;;;;;
2023/12/08 00:37:22;;;;;;;227.90;143.50;;;;;;;0.34;100.00;100884.84;108566;1281;21848;-78
2023/12/08 00:41:04;;;;;;;;;;;;;;;;;;;;;
2023/12/08 00:44:52;;;;;;;;;;;;;;;;;;;;;
2023/12/08 00:47:30;;;;;;;227.80;145.80;;;;;;;0.08;100.00;100884.66;107974;1290;22002;-79
2023/12/08 00:50:23;;;;;;;;;;;;;;;;;;;;;
2023/12/08 01:19:12;;;;;;;;;;;;;;;;;;;;;
2023/12/08 01:39:00;;;;;;;;;;;;;;;;;;;;;
2023/12/08 01:42:50;;;;;;;;;;;;;;;;;;;;;
2023/12/08 01:47:10;;;;;;;229.20;153.30;;;;;;;0.79;100.00;100876.27;107240;1287;548064;-76
2023/12/08 01:51:06;;;;;;;;;;;;;;;;;;;;;
2023/12/08 01:59:18;;;;;;;;;;;;;;;;;;;;;
2023/12/08 02:03:00;;;;;;;;;;;;;;;;;;;;;
2023/12/08 02:06:46;;;;;;;;;;;;;;;;;;;;;
2023/12/08 02:25:49;;;;;;;;;;;;;;;;;;;;;
2023/12/08 02:30:17;;;;;;;;;;;;;;;;;;;;;
2023/12/08 02:46:42;;;;;;;;;;;;;;;;;;;;;
2023/12/08 02:50:51;;;;;;;188.30;128.40;;;;;;;0.64;100.00;100827.11;109406;1272;22166;-79
2023/12/08 02:54:14;;;;;;;195.20;132.40;;;;;;;0.55;100.00;100819.98;109421;1272;22171;-80
2023/12/08 02:57:54;;;;;;;195.60;128.40;;;;;;;0.44;100.00;100815.09;109641;1272;23650;-77
2023/12/08 03:01:25;;;;;;;;;;;;;;;;;;;;;
2023/12/08 03:12:59;;;;;;;192.30;126.30;;;;;;;0.17;100.00;100800.41;108933;1276;22749;-79
2023/12/08 03:20:34;;;;;;;;;;;;;;;;;;;;;
2023/12/08 03:40:03;;;;;;;;;;;;;;;;;;;;;
2023/12/08 03:44:33;;;;;;;;;;;;;;;;;;;;;
2023/12/08 03:48:38;;;;;;;194.10;124.10;;;;;;;0.03;100.00;100790.64;109590;1270;23125;-77
2023/12/08 03:51:46;;;;;;;193.60;128.30;;;;;;;0.09;100.00;100787.98;109856;1270;23100;-81
2023/12/08 03:54:50;;;;;;;192.20;126.20;;;;;;;0.11;100.00;100785.43;109614;1270;22732;-80
2023/12/08 03:57:59;;;;;;;192.20;127.70;;;;;;;0.13;100.00;100779.64;108943;1279;22015;-82
2023/12/08 04:15:43;;;;;;;;;;;;;;;;;;;;;
2023/12/08 04:19:18;;;;;;;;;;;;;;;;;;;;;
2023/12/08 04:24:21;;;;;;;;;;;;;;;;;;;;;
2023/12/08 04:27:58;;;;;;;196.40;122.80;;;;;;;0.39;100.00;100760.07;109779;1269;23018;-81
2023/12/08 04:31:39;;;;;;;192.80;125.80;;;;;;;0.26;100.00;100757.20;109223;1274;23659;-79
2023/12/08 04:35:16;;;;;;;198.60;123.20;;;;;;;0.20;100.00;100761.41;109355;1271;23673;-79
2023/12/08 04:43:28;;;;;;;;;;;;;;;;;;;;;
2023/12/08 04:47:33;;;;;;;207.80;126.00;;;;;;;-0.02;100.00;100759.27;108539;1280;24554;-79
2023/12/08 04:50:41;;;;;;;;;;;;;;;;;;;;;
2023/12/08 05:08:46;;;;;;;;;;;;;;;;;;;;;
2023/12/08 05:12:41;;;;;;;253.80;149.20;;;;;;;1.51;100.00;100749.27;107946;1244;5450685;-78
2023/12/08 05:21:46;;;;;;;211.50;123.30;;;;;;;0.48;100.00;100726.77;110120;1259;22071;-80
2023/12/08 05:25:12;;;;;;;;;;;;;;;;;;;;;
2023/12/08 05:28:49;;;;;;;;;;;;;;;;;;;;;
2023/12/08 05:50:34;;;;;;;182.10;126.00;;;;;;;1.63;100.00;100737.46;110607;1253;548186;-78
2023/12/08 05:54:04;;;;;;;;;;;;;;;;;;;;;
2023/12/08 06:01:45;;;;;;;205.40;133.80;;;;;;;0.75;100.00;100741.05;110977;1256;22844;-79
2023/12/08 06:05:55;;;;;;;;;;;;;;;;;;;;;
2023/12/08 06:09:01;;;;;;;;;;;;;;;;;;;;;
2023/12/08 06:12:59;;;;;;;;;;;;;;;;;;;;;
2023/12/08 06:20:24;;;;;;;;;;;;;;;;;;;;;
2023/12/08 06:26:43;;;;;;;656.90;392.60;;;;;;;0.11;100.00;100766.45;110793;1262;21997;-76
2023/12/08 06:29:37;;;;;;;590.10;385.00;;;;;;;-0.05;100.00;100744.36;110899;1257;21980;-76
2023/12/08 06:32:25;;;;;;;353.60;202.10;;;;;;;0.08;100.00;100765.37;110527;1262;22418;-77
2023/12/08 06:35:09;;;;;;;399.20;234.70;;;;;;;0.06;100.00;100767.73;110420;1262;21981;-75
2023/12/08 06:37:51;;;;;;;;;;;;;;;;;;;;;
2023/12/08 06:40:47;;;;;;;230.60;128.40;;;;;;;0.08;100.00;100778.38;110954;1257;21976;-75
2023/12/08 06:43:37;;;;;;;193.20;113.70;;;;;;;0.07;100.00;100778.20;111055;1253;22051;-77
2023/12/08 06:46:14;;;;;;;234.90;125.40;;;;;;;0.08;100.00;100778.02;111276;1252;23619;-77
2023/12/08 06:49:13;;;;;;;235.70;139.70;;;;;;;0.08;100.00;100781.80;111032;1251;22709;-80
2023/12/08 06:51:45;;;;;;;283.70;174.40;;;;;;;0.08;100.00;100775.99;111549;1251;23605;-76
2023/12/08 06:54:33;;;;;;;203.70;121.20;;;;;;;0.11;100.00;100774.15;111547;1251;23037;-77
2023/12/08 06:57:40;;;;;;;189.80;113.60;;;;;;;0.11;100.00;100767.63;111598;1251;23587;-76
2023/12/08 07:00:19;;;;;;;170.80;105.20;;;;;;;0.10;100.00;100766.26;111327;1251;21952;-77
2023/12/08 07:02:57;;;;;;;179.80;106.60;;;;;;;0.14;100.00;100768.18;111384;1246;23040;-76
2023/12/08 07:05:47;;;;;;;194.20;110.20;;;;;;;0.16;100.00;100770.95;111854;1246;21964;-75
2023/12/08 07:08:43;;;;;;;172.30;104.30;;;;;;;0.18;100.00;100772.52;112610;1242;22665;-77
2023/12/08 07:11:33;;;;;;;244.40;143.80;;;;;;;0.22;100.00;100771.18;112308;1242;22016;-78
2023/12/08 07:14:06;;;;;;;351.10;235.70;;;;;;;0.24;100.00;100771.21;111883;1246;24245;-77
2023/12/08 07:16:47;;;;;;;301.50;159.90;;;;;;;0.26;100.00;100768.33;111318;1252;22094;-78
2023/12/08 07:19:18;;;;;;;287.90;148.90;;;;;;;0.24;100.00;100762.14;111341;1252;22180;-76
2023/12/08 07:21:52;;;;;;;220.40;125.00;;;;;;;0.25;100.00;100762.15;111464;1252;23028;-76
2023/12/08 07:24:31;;;;;;;209.60;118.40;;;;;;;0.30;100.00;100757.40;111676;1252;22021;-76
2023/12/08 07:27:01;;;;;;;168.60;104.70;;;;;;;0.33;100.00;100752.13;111214;1255;21980;-77
2023/12/08 07:29:33;;;;;;;169.90;105.00;;;;;;;0.33;100.00;100747.16;111065;1255;22035;-76
2023/12/08 07:32:07;;;;;;;171.20;104.50;;;;;;;0.30;100.00;100742.01;111226;1250;22001;-77
2023/12/08 07:34:47;;;;;;;164.60;103.50;;;;;;;0.31;100.00;100740.48;111833;1246;23681;-77
2023/12/08 07:37:36;;;;;;;177.50;108.10;;;;;;;0.34;100.00;100746.15;111943;1246;21958;-80
2023/12/08 07:40:17;;;;;;;201.40;119.90;;;;;;;0.40;100.00;100751.52;111251;1252;23101;-77
2023/12/08 07:43:08;;;;;;;183.90;109.10;;;;;;;0.44;100.00;100755.32;111316;1253;21965;-80
2023/12/08 07:45:52;;;;;;;162.00;100.70;;;;;;;0.46;100.00;100756.73;111548;1248;21968;-76
2023/12/08 07:48:38;;;;;;;163.60;106.40;;;;;;;0.46;100.00;100759.96;111589;1241;21961;-76
2023/12/08 07:51:13;;;;;;;153.80;96.10;;;;;;;0.47;100.00;100761.86;111657;1248;23961;-77
2023/12/08 07:53:59;;;;;;;168.10;103.10;;;;;;;0.48;100.00;100771.46;111823;1248;23742;-76
2023/12/08 07:56:44;;;;;;;158.90;99.50;;;;;;;0.51;100.00;100773.04;111731;1248;21968;-78
2023/12/08 07:59:22;;;;;;;159.80;103.00;;;;;;;0.58;100.00;100768.30;112520;1241;23616;-77
2023/12/08 08:02:06;;;;;;;172.50;110.90;;;;;;;0.60;100.00;100757.38;111811;1248;21960;-75
2023/12/08 08:04:39;;;;;;;169.70;107.10;;;;;;;0.59;100.00;100751.20;111824;1248;21981;-77
2023/12/08 08:07:24;;;;;;;151.20;96.10;;;;;;;0.55;100.00;100741.39;111845;1248;21962;-78
2023/12/08 08:10:00;;;;;;;141.50;87.20;;;;;;;0.49;100.00;100730.38;111824;1248;23463;-77
2023/12/08 08:12:43;;;;;;;144.60;92.60;;;;;;;0.45;100.00;100728.45;111091;1252;21972;-77
2023/12/08 08:15:18;;;;;;;147.10;90.60;;;;;;;0.41;100.00;100729.10;111246;1252;21979;-76
2023/12/08 08:18:04;;;;;;;137.80;91.90;;;;;;;0.39;100.00;100724.63;111268;1252;21987;-76
2023/12/08 08:20:43;;;;;;;142.00;89.30;;;;;;;0.37;100.00;100714.85;110994;1254;21973;-77
2023/12/08 08:23:18;;;;;;;160.60;109.70;;;;;;;0.37;100.00;100711.25;110889;1258;22755;-77
2023/12/08 08:25:54;;;;;;;165.20;101.90;;;;;;;0.38;100.00;100711.60;110538;1261;21986;-77
2023/12/08 08:28:46;;;;;;;150.70;90.90;;;;;;;0.38;100.00;100710.75;110402;1262;22007;-78
2023/12/08 08:31:26;;;;;;;145.30;88.30;;;;;;;0.38;100.00;100704.41;110514;1259;23704;-77
2023/12/08 08:34:03;;;;;;;156.20;91.70;;;;;;;0.37;100.00;100702.02;110679;1259;21978;-78
2023/12/08 08:36:45;;;;;;;159.30;94.00;;;;;;;0.41;100.00;100700.67;110453;1263;22880;-77
2023/12/08 08:39:23;;;;;;;141.30;89.20;;;;;;;0.47;100.00;100701.59;110596;1258;21998;-77
2023/12/08 08:42:09;;;;;;;152.10;94.00;;;;;;;0.52;100.00;100707.80;111278;1252;22077;-76
2023/12/08 08:44:48;;;;;;;162.20;95.70;;;;;;;0.57;100.00;100707.67;111167;1254;21965;-77
2023/12/08 08:47:25;;;;;;;175.30;113.50;;;;;;;0.63;100.00;100702.24;111217;1254;21966;-78
2023/12/08 08:50:05;;;;;;;199.80;119.90;;;;;;;0.69;100.00;100707.77;111228;1253;22713;-77
2023/12/08 08:52:41;;;;;;;189.30;113.70;;;;;;;0.73;100.00;100712.09;111239;1253;23613;-76
2023/12/08 08:55:24;;;;;;;162.20;97.20;;;;;;;0.81;100.00;100709.08;111602;1248;22041;-77
2023/12/08 08:58:01;;;;;;;157.30;96.60;;;;;;;0.87;100.00;100709.80;111770;1248;24362;-77
2023/12/08 09:00:38;;;;;;;146.00;93.20;;;;;;;0.88;100.00;100706.04;111322;1252;21965;-77
2023/12/08 09:03:22;;;;;;;151.30;91.10;;;;;;;0.85;100.00;100702.92;111071;1254;23045;-77
2023/12/08 09:05:58;;;;;;;143.30;89.30;;;;;;;0.83;100.00;100694.52;111203;1254;21984;-77
2023/12/08 09:08:29;;;;;;;149.10;92.20;;;;;;;0.82;100.00;100699.98;111182;1254;21960;-76
2023/12/08 09:11:21;;;;;;;144.60;89.60;;;;;;;0.83;100.00;100713.55;111056;1254;21957;-78
2023/12/08 09:14:00;;;;;;;164.10;104.60;;;;;;;0.82;100.00;100720.55;111216;1254;23738;-77
2023/12/08 09:16:29;;;;;;;144.80;89.40;;;;;;;0.82;100.00;100716.44;111197;1254;22115;-76
2023/12/08 09:19:05;;;;;;;151.60;90.70;;;;;;;0.83;100.00;100717.46;111513;1249;21971;-76
2023/12/08 09:21:37;;;;;;;155.50;98.60;;;;;;;0.82;100.00;100709.77;112015;1243;22064;-77
2023/12/08 09:24:25;;;;;;;172.90;107.30;;;;;;;0.86;100.00;100709.44;112535;1243;21960;-78
2023/12/08 09:27:13;;;;;;;168.30;104.00;;;;;;;0.93;100.00;100711.23;112122;1243;23606;-77
2023/12/08 09:30:05;;;;;;;153.50;97.00;;;;;;;1.00;100.00;100716.93;112105;1243;21964;-80
2023/12/08 09:32:38;;;;;;;153.30;93.60;;;;;;;1.04;100.00;100716.09;112486;1243;22306;-79
2023/12/08 09:35:17;;;;;;;153.60;97.60;;;;;;;1.07;100.00;100713.02;112181;1243;23690;-79
2023/12/08 09:37:54;;;;;;;164.70;105.40;;;;;;;1.13;100.00;100709.46;112462;1243;23739;-76
2023/12/08 09:40:30;;;;;;;167.20;106.90;;;;;;;1.20;100.00;100709.34;112209;1243;22879;-75
2023/12/08 09:43:16;;;;;;;155.30;96.20;;;;;;;1.26;100.00;100705.42;112265;1243;21921;-79
2023/12/08 09:45:54;;;;;;;145.30;87.00;;;;;;;1.31;100.00;100704.09;112419;1243;21954;-83
2023/12/08 09:48:37;;;;;;;164.60;95.80;;;;;;;1.30;100.00;100694.65;112303;1243;21913;-77
2023/12/08 09:51:09;;;;;;;132.90;87.30;;;;;;;1.30;100.00;100686.77;111761;1249;21955;-77
2023/12/08 09:53:52;;;;;;;159.30;94.60;;;;;;;1.32;100.00;100680.95;111543;1249;21994;-77
2023/12/08 09:56:30;;;;;;;144.30;91.40;;;;;;;1.35;100.00;100678.05;111250;1254;21966;-77
2023/12/08 09:59:05;;;;;;;142.40;87.10;;;;;;;1.42;100.00;100670.71;111190;1254;23959;-76
2023/12/08 10:01:41;;;;;;;148.60;95.60;;;;;;;1.50;100.00;100668.19;110966;1257;21998;-77
2023/12/08 10:04:12;;;;;;;146.00;90.50;;;;;;;1.54;100.00;100665.61;111162;1257;23607;-76
2023/12/08 10:06:44;;;;;;;;;;;;;;;1.60;100.00;100664.61;110964;1257;23115;-77
2023/12/08 10:09:22;;;;;;;135.80;86.70;;;;;;;1.54;100.00;100661.16;111131;1252;23032;-76
2023/12/08 10:12:04;;;;;;;133.30;85.40;;;;;;;1.48;100.00;100660.96;111309;1252;21971;-77
2023/12/08 10:14:56;;;;;;;132.00;86.00;;;;;;;1.45;100.00;100659.92;111706;1248;21963;-78
2023/12/08 10:17:33;;;;;;;139.50;87.60;;;;;;;1.43;100.00;100652.54;111892;1248;21991;-77
2023/12/08 10:20:12;;;;;;;132.00;87.00;;;;;;;1.43;100.00;100652.19;111849;1248;23701;-76
2023/12/08 10:22:56;;;;;;;133.90;86.60;;;;;;;1.40;100.00;100650.13;111634;1251;21964;-77
2023/12/08 10:25:32;;;;;;;142.00;89.50;;;;;;;1.42;100.00;100655.95;111334;1241;23476;-77
2023/12/08 10:28:05;;;;;;;140.20;92.20;;;;;;;1.50;100.00;100660.64;111585;1251;21962;-78
2023/12/08 10:30:37;;;;;;;136.80;87.60;;;;;;;1.62;100.00;100656.90;111895;1247;23862;-76
2023/12/08 10:33:06;;;;;;;153.70;97.10;;;;;;;1.69;100.00;100648.69;111850;1247;21962;-77
2023/12/08 10:35:51;;;;;;;141.10;89.90;;;;;;;1.77;100.00;100640.81;111490;1252;22848;-78
2023/12/08 10:38:28;;;;;;;133.60;87.70;;;;;;;1.81;100.00;100637.05;111333;1248;22147;-78
2023/12/08 10:40:57;;;;;;;139.20;90.20;;;;;;;1.81;100.00;100636.36;111731;1245;21969;-77
2023/12/08 10:43:49;;;;;;;142.40;89.00;;;;;;;1.81;100.00;100637.23;112112;1245;24456;-77
2023/12/08 10:46:22;;;;;;;134.40;85.00;;;;;;;1.88;100.00;100636.21;111931;1245;22009;-78
2023/12/08 10:49:11;;;;;;;137.60;88.80;;;;;;;1.91;100.00;100634.34;112105;1245;21961;-76
2023/12/08 10:51:59;;;;;;;136.40;88.70;;;;;;;1.97;100.00;100630.40;112209;1239;23110;-80
2023/12/08 10:54:39;;;;;;;139.60;89.90;;;;;;;2.00;100.00;100623.87;113276;1233;23082;-79
2023/12/08 10:57:08;;;;;;;139.00;88.70;;;;;;;1.98;100.00;100615.98;113441;1233;22167;-78
2023/12/08 10:59:50;;;;;;;135.00;88.90;;;;;;;1.99;100.00;100617.19;113462;1233;21949;-77
2023/12/08 11:02:33;;;;;;;145.80;98.10;;;;;;;2.02;100.00;100612.55;113506;1232;23006;-78
2023/12/08 11:05:16;;;;;;;125.40;84.80;;;;;;;2.14;100.00;100620.13;113048;1238;21980;-77
2023/12/08 11:07:54;;;;;;;133.20;87.00;;;;;;;2.14;100.00;100621.34;113057;1239;22201;-79
2023/12/08 11:10:51;;;;;;;125.70;83.80;;;;;;;2.11;100.00;100618.40;113308;1238;21967;-79
2023/12/08 11:13:30;;;;;;;129.10;84.40;;;;;;;2.13;100.00;100613.77;113019;1239;21952;-80
2023/12/08 11:16:12;;;;;;;122.50;80.20;;;;;;;2.21;100.00;100614.64;112267;1244;23154;-77
2023/12/08 11:18:58;;;;;;;118.70;81.90;;;;;;;2.31;100.00;100616.53;112392;1242;21959;-81
2023/12/08 11:21:35;;;;;;;113.60;76.40;;;;;;;2.34;100.00;100619.45;112458;1244;21922;-79
2023/12/08 11:24:20;;;;;;;117.20;81.10;;;;;;;2.26;100.00;100618.41;112373;1244;23700;-79
2023/12/08 11:27:11;;;;;;;120.80;79.80;;;;;;;2.16;100.00;100613.42;112220;1244;21969;-80
2023/12/08 11:30:16;;;;;;;111.80;78.10;;;;;;;2.05;100.00;100604.84;112010;1245;23617;-76
2023/12/08 11:33:33;;;;;;;116.70;75.00;;;;;;;2.00;100.00;100594.87;111715;1248;23605;-78
2023/12/08 11:36:11;;;;;;;108.90;76.30;;;;;;;1.91;100.00;100589.19;111600;1248;22053;-78
2023/12/08 11:38:40;;;;;;;109.00;74.00;;;;;;;1.89;100.00;100588.51;111889;1249;22031;-77
2023/12/08 11:41:19;;;;;;;107.10;73.90;;;;;;;1.88;100.00;100587.30;112149;1242;22022;-77
2023/12/08 11:43:54;;;;;;;112.20;76.80;;;;;;;1.82;100.00;100585.91;111879;1247;22003;-77
2023/12/08 11:46:23;;;;;;;102.50;70.10;;;;;;;1.76;100.00;100588.48;111471;1251;22676;-78
2023/12/08 11:48:54;;;;;;;112.00;74.30;;;;;;;1.73;100.00;100585.55;111722;1249;21939;-76
2023/12/08 11:51:37;;;;;;;107.70;74.60;;;;;;;1.69;100.00;100579.71;112013;1243;23800;-77
2023/12/08 11:54:13;;;;;;;106.40;72.70;;;;;;;1.65;100.00;100572.67;112568;1241;22080;-76
2023/12/08 11:56:56;;;;;;;94.00;67.10;;;;;;;1.66;100.00;100573.02;112355;1243;21952;-77
2023/12/08 11:59:44;;;;;;;106.90;71.50;;;;;;;1.68;100.00;100569.77;112211;1243;23055;-77
2023/12/08 12:02:21;;;;;;;97.10;66.00;;;;;;;1.66;100.00;100573.02;112469;1239;23460;-77
2023/12/08 12:05:01;;;;;;;108.10;70.10;;;;;;;1.68;100.00;100568.73;113110;1233;21922;-77
2023/12/08 12:07:45;;;;;;;101.70;66.20;;;;;;;1.73;100.00;100566.52;113396;1233;23058;-76
2023/12/08 12:10:29;;;;;;;95.30;65.20;;;;;;;1.71;100.00;100562.05;113369;1233;21978;-78
2023/12/08 12:13:18;;;;;;;95.10;63.70;;;;;;;1.68;100.00;100558.45;113376;1233;23822;-77
2023/12/08 12:15:59;;;;;;;95.00;65.10;;;;;;;1.66;100.00;100560.15;113394;1233;21969;-77
2023/12/08 12:18:46;;;;;;;101.10;65.30;;;;;;;1.64;100.00;100554.48;113428;1233;21958;-75
2023/12/08 12:21:26;;;;;;;98.90;66.30;;;;;;;1.63;100.00;100549.16;112671;1239;21973;-78
2023/12/08 12:24:30;;;;;;;95.70;66.30;;;;;;;1.61;100.00;100554.32;112462;1239;21945;-77
2023/12/08 12:27:05;;;;;;;89.10;61.10;;;;;;;1.59;100.00;100558.59;112034;1245;24000;-77
2023/12/08 12:29:40;;;;;;;105.30;70.60;;;;;;;1.58;100.00;100552.24;112030;1245;21973;-77
2023/12/08 12:32:27;;;;;;;124.80;89.90;;;;;;;1.59;100.00;100553.45;111946;1245;21972;-77
2023/12/08 12:35:09;;;;;;;85.10;58.30;;;;;;;1.59;100.00;100550.52;112090;1244;21960;-77
2023/12/08 12:37:39;;;;;;;95.00;63.90;;;;;;;1.58;100.00;100550.53;111322;1252;22100;-77
2023/12/08 12:40:25;;;;;;;92.30;63.20;;;;;;;1.56;100.00;100548.13;111791;1246;21947;-77
2023/12/08 12:42:58;;;;;;;99.50;66.40;;;;;;;1.53;100.00;100554.12;111660;1246;21973;-77
2023/12/08 12:45:34;;;;;;;102.60;65.40;;;;;;;1.52;100.00;100551.71;111544;1250;21952;-76
2023/12/08 12:48:19;;;;;;;97.60;66.20;;;;;;;1.52;100.00;100547.77;111492;1250;22056;-75
2023/12/08 12:51:00;;;;;;;101.00;65.60;;;;;;;1.51;100.00;100548.63;110948;1256;21979;-79
2023/12/08 12:53:51;;;;;;;91.80;64.90;;;;;;;1.51;100.00;100545.55;110811;1257;21985;-79
2023/12/08 12:56:25;;;;;;;105.10;68.40;;;;;;;1.49;100.00;100544.51;111309;1251;22037;-77
2023/12/08 12:59:08;;;;;;;93.50;63.40;;;;;;;1.49;100.00;100541.08;111288;1251;24306;-76
2023/12/08 13:01:48;;;;;;;89.60;60.60;;;;;;;1.50;100.00;100544.16;111495;1251;21965;-78
2023/12/08 13:04:31;;;;;;;84.00;56.10;;;;;;;1.51;100.00;100544.34;112108;1237;23015;-78
2023/12/08 13:07:16;;;;;;;91.90;58.70;;;;;;;1.50;100.00;100544.34;112222;1243;23778;-77
2023/12/08 13:10:02;;;;;;;86.20;56.60;;;;;;;1.45;100.00;100548.44;112764;1237;23008;-76
2023/12/08 13:12:38;;;;;;;82.30;56.60;;;;;;;1.44;100.00;100549.80;112877;1239;23591;-76
2023/12/08 13:15:21;;;;;;;76.10;54.70;;;;;;;1.45;100.00;100548.45;113024;1238;23018;-77
2023/12/08 13:18:06;;;;;;;76.50;55.90;;;;;;;1.48;100.00;100545.02;112967;1239;22957;-77
2023/12/08 13:20:41;;;;;;;73.60;53.50;;;;;;;1.49;100.00;100543.65;112839;1239;21904;-78
2023/12/08 13:23:20;;;;;;;69.60;49.40;;;;;;;1.50;100.00;100542.80;113429;1235;21987;-79
2023/12/08 13:26:00;;;;;;;68.70;51.30;;;;;;;1.48;100.00;100544.16;113321;1235;23004;-78
2023/12/08 13:28:41;;;;;;;67.40;49.10;;;;;;;1.41;100.00;100546.02;112950;1239;21952;-77
2023/12/08 13:31:18;;;;;;;66.30;49.60;;;;;;;1.37;100.00;100546.17;112934;1238;23712;-77
2023/12/08 13:33:59;;;;;;;66.90;51.70;;;;;;;1.34;100.00;100543.09;113134;1239;21946;-78
2023/12/08 13:36:46;;;;;;;71.00;54.20;;;;;;;1.29;100.00;100544.80;112749;1237;24133;-78
2023/12/08 13:39:35;;;;;;;73.70;55.30;;;;;;;1.25;100.00;100543.93;112405;1243;22081;-78
2023/12/08 13:42:18;;;;;;;74.10;54.90;;;;;;;1.21;100.00;100547.52;111581;1249;21950;-78
2023/12/08 13:44:58;;;;;;;83.00;60.10;;;;;;;1.19;100.00;100546.81;111802;1249;23075;-77
2023/12/08 13:47:37;;;;;;;81.20;56.20;;;;;;;1.17;100.00;100541.49;110974;1255;24353;-77
2023/12/08 13:50:09;;;;;;;72.60;54.10;;;;;;;1.13;100.00;100536.34;111152;1255;23694;-77
2023/12/08 13:52:46;;;;;;;66.00;51.90;;;;;;;1.09;100.00;100538.89;111347;1251;21979;-76
2023/12/08 13:55:30;;;;;;;62.30;47.70;;;;;;;1.00;100.00;100537.48;111370;1251;24311;-79
2023/12/08 13:58:03;;;;;;;69.70;53.80;;;;;;;0.97;100.00;100538.33;111722;1246;23034;-76
2023/12/08 14:00:32;;;;;;;66.30;50.30;;;;;;;0.95;100.00;100539.70;112472;1240;22739;-79
2023/12/08 14:03:22;;;;;;;71.20;52.20;;;;;;;0.90;100.00;100545.48;111960;1245;21950;-77
2023/12/08 14:06:06;;;;;;;73.00;53.80;;;;;;;0.84;100.00;100547.34;112272;1239;22857;-78
2023/12/08 14:08:46;;;;;;;70.60;54.50;;;;;;;0.80;100.00;100550.58;112694;1239;21926;-78
2023/12/08 14:11:34;;;;;;;73.90;55.70;;;;;;;0.77;100.00;100553.98;112977;1239;22169;-77
2023/12/08 14:14:16;;;;;;;81.70;63.00;;;;;;;0.75;100.00;100555.34;112543;1239;21970;-78
2023/12/08 14:17:00;;;;;;;91.30;65.40;;;;;;;0.73;100.00;100557.90;112606;1239;21917;-77
2023/12/08 14:19:40;;;;;;;79.70;62.90;;;;;;;0.73;100.00;100556.89;112554;1239;22076;-77
2023/12/08 14:22:22;;;;;;;93.70;65.60;;;;;;;0.73;100.00;100555.69;113209;1233;23569;-78
2023/12/08 14:25:03;;;;;;;76.40;58.30;;;;;;;0.69;100.00;100554.28;112792;1238;23515;-78
2023/12/08 14:27:37;;;;;;;75.90;56.90;;;;;;;0.63;100.00;100554.59;112248;1243;21953;-79
2023/12/08 14:30:17;;;;;;;81.30;60.50;;;;;;;0.61;100.00;100555.78;111880;1247;21978;-77
2023/12/08 14:33:00;;;;;;;83.00;62.40;;;;;;;0.57;100.00;100551.98;111889;1247;21957;-78
2023/12/08 14:35:32;;;;;;;78.60;59.30;;;;;;;0.51;100.00;100549.89;111749;1247;21958;-78
2023/12/08 14:38:08;;;;;;;70.80;53.90;;;;;;;0.40;100.00;100545.89;111445;1252;24334;-78
2023/12/08 14:40:45;;;;;;;73.90;56.60;;;;;;;0.32;100.00;100548.41;111434;1251;22736;-78
2023/12/08 14:43:36;;;;;;;73.30;55.40;;;;;;;0.30;100.00;100553.52;111615;1249;23813;-77
2023/12/08 14:46:08;;;;;;;65.90;53.00;;;;;;;0.26;100.00;100552.11;112183;1243;23089;-77
2023/12/08 14:48:40;;;;;;;67.30;52.90;;;;;;;0.23;100.00;100555.17;112543;1239;21950;-78
2023/12/08 14:51:21;;;;;;;64.80;49.70;;;;;;;0.18;100.00;100552.41;112367;1235;23721;-79
2023/12/08 14:53:56;;;;;;;67.50;54.10;;;;;;;0.15;100.00;100548.96;112183;1243;21905;-78
2023/12/08 14:56:44;;;;;;;74.50;57.30;;;;;;;0.12;100.00;100545.67;112790;1237;22896;-78
2023/12/08 14:59:27;;;;;;;90.90;65.30;;;;;;;0.08;100.00;100546.67;113010;1237;21937;-77
2023/12/08 15:02:06;;;;;;;80.30;60.50;;;;;;;0.04;100.00;100541.33;113216;1237;22059;-77
2023/12/08 15:04:59;;;;;;;82.90;63.40;;;;;;;-0.04;100.00;100527.25;112265;1243;23025;-77
2023/12/08 15:07:30;;;;;;;76.80;57.60;;;;;;;-0.03;100.00;100526.91;112229;1243;22007;-78
2023/12/08 15:10:19;;;;;;;80.90;60.70;;;;;;;-0.05;100.00;100527.23;112606;1239;21941;-78
2023/12/08 15:12:51;;;;;;;72.90;55.30;;;;;;;-0.09;100.00;100525.31;112612;1239;21970;-76
2023/12/08 15:15:24;;;;;;;76.00;56.90;;;;;;;-0.16;100.00;100522.35;112693;1239;22166;-77
2023/12/08 15:18:26;;;;;;;89.00;69.30;;;;;;;-0.22;100.00;100518.02;112161;1244;22998;-77
2023/12/08 15:21:02;;;;;;;77.20;54.40;;;;;;;-0.29;100.00;100507.88;111535;1249;23117;-76
2023/12/08 15:23:50;;;;;;;78.70;58.40;;;;;;;-0.31;100.00;100515.89;112214;1243;21982;-77
2023/12/08 15:26:49;;;;;;;99.40;76.70;;;;;;;-0.35;100.00;100521.84;111438;1250;21959;-77
2023/12/08 15:29:45;;;;;;;90.40;74.30;;;;;;;-0.39;100.00;100522.30;111333;1250;21965;-76
2023/12/08 15:32:24;;;;;;;84.80;65.70;;;;;;;-0.41;100.00;100523.15;111040;1254;21954;-77
2023/12/08 15:34:59;;;;;;;84.10;65.50;;;;;;;-0.43;100.00;100527.23;110854;1257;23059;-79
2023/12/08 15:37:38;;;;;;;80.20;61.90;;;;;;;-0.45;100.00;100526.70;110851;1257;21990;-78
2023/12/08 15:40:12;;;;;;;71.50;59.50;;;;;;;-0.47;100.00;100524.96;111007;1247;21968;-78
2023/12/08 15:42:47;;;;;;;77.90;57.30;;;;;;;-0.49;100.00;100529.56;111071;1254;22284;-77
2023/12/08 15:45:39;;;;;;;71.60;57.90;;;;;;;-0.54;100.00;100530.02;111213;1252;23754;-79
2023/12/08 15:48:27;;;;;;;77.10;58.90;;;;;;;-0.60;100.00;100531.66;111198;1252;23613;-77
2023/12/08 15:51:18;;;;;;;79.70;59.00;;;;;;;-0.61;100.00;100541.74;111662;1246;21968;-78
2023/12/08 15:54:00;;;;;;;86.30;59.60;;;;;;;-0.70;100.00;100542.84;112516;1239;22077;-76
2023/12/08 15:56:42;;;;;;;85.60;61.20;;;;;;;-0.73;100.00;100546.06;113023;1233;21969;-78
2023/12/08 15:59:15;;;;;;;;;;;;;;;-0.73;100.00;100552.05;113456;1233;22022;-76
2023/12/08 16:02:00;;;;;;;91.10;63.70;;;;;;;-0.88;100.00;100540.42;112862;1238;21897;-76
2023/12/08 16:04:49;;;;;;;82.10;59.60;;;;;;;-0.84;100.00;100549.02;112200;1244;22218;-79
2023/12/08 16:07:31;;;;;;;81.10;59.00;;;;;;;-0.85;100.00;100548.65;111797;1249;23709;-78
2023/12/08 16:10:09;;;;;;;93.50;64.10;;;;;;;-0.86;100.00;100547.78;111790;1248;21981;-76
2023/12/08 16:12:49;;;;;;;85.00;60.90;;;;;;;-0.81;100.00;100547.33;111646;1248;21962;-77
2023/12/08 16:15:26;;;;;;;99.50;71.40;;;;;;;-0.77;100.00;100547.20;111791;1248;22333;-77
2023/12/08 16:18:10;;;;;;;94.90;68.20;;;;;;;-0.70;100.00;100547.30;111793;1248;21998;-77
2023/12/08 16:20:47;;;;;;;102.80;69.00;;;;;;;-0.63;100.00;100552.15;112139;1244;22541;-77
2023/12/08 16:23:20;;;;;;;100.30;72.10;;;;;;;-0.57;100.00;100551.01;112751;1238;23002;-77
2023/12/08 16:25:59;;;;;;;115.80;79.00;;;;;;;-0.53;100.00;100552.25;113195;1233;22501;-77
2023/12/08 16:28:46;;;;;;;102.20;71.20;;;;;;;-0.52;100.00;100552.77;113432;1233;23607;-78
2023/12/08 16:31:22;;;;;;;100.50;69.30;;;;;;;-0.52;100.00;100549.54;113407;1233;23011;-78
2023/12/08 16:33:57;;;;;;;92.00;67.10;;;;;;;-0.47;100.00;100543.09;113440;1233;21977;-78
2023/12/08 16:36:39;;;;;;;92.70;65.70;;;;;;;-0.41;100.00;100540.93;113452;1232;21934;-78
2023/12/08 16:39:15;;;;;;;97.00;68.80;;;;;;;-0.37;100.00;100537.37;113420;1233;22001;-77